sensor_id;sensor_type;location;lat;lon;timestamp;temperature;humidity
68701;DHT22;55682;51.114;5.882;2023-07-16T00:00:30;20.54;80.66
68701;DHT22;55682;51.114;5.882;2023-07-16T00:02:57;20.43;80.78
68701;DHT22;55682;51.114;5.882;2023-07-16T00:05:23;20.37;80.56
68701;DHT22;55682;51.114;5.882;2023-07-16T00:07:49;20.20;81.27
68701;DHT22;55682;51.114;5.882;2023-07-16T00:10:14;20.04;82.17
68701;DHT22;55682;51.114;5.882;2023-07-16T00:12:40;19.97;82.15
68701;DHT22;55682;51.114;5.882;2023-07-16T00:15:06;19.90;82.54
68701;DHT22;55682;51.114;5.882;2023-07-16T00:17:36;19.88;82.87
68701;DHT22;55682;51.114;5.882;2023-07-16T00:20:02;19.83;83.10
68701;DHT22;55682;51.114;5.882;2023-07-16T00:22:29;19.85;82.82
68701;DHT22;55682;51.114;5.882;2023-07-16T00:24:55;19.81;82.94
68701;DHT22;55682;51.114;5.882;2023-07-16T00:27:21;19.70;83.21
68701;DHT22;55682;51.114;5.882;2023-07-16T00:29:46;19.66;82.97
68701;DHT22;55682;51.114;5.882;2023-07-16T00:32:12;19.62;83.00
68701;DHT22;55682;51.114;5.882;2023-07-16T00:34:38;19.56;83.25
68701;DHT22;55682;51.114;5.882;2023-07-16T00:37:03;19.56;83.14
68701;DHT22;55682;51.114;5.882;2023-07-16T00:39:29;19.44;83.36
68701;DHT22;55682;51.114;5.882;2023-07-16T00:41:56;19.41;83.11
68701;DHT22;55682;51.114;5.882;2023-07-16T00:44:22;19.37;83.07
68701;DHT22;55682;51.114;5.882;2023-07-16T00:46:49;19.33;83.01
68701;DHT22;55682;51.114;5.882;2023-07-16T00:49:15;19.27;82.80
68701;DHT22;55682;51.114;5.882;2023-07-16T00:51:42;19.21;82.64
68701;DHT22;55682;51.114;5.882;2023-07-16T00:54:08;19.23;82.43
68701;DHT22;55682;51.114;5.882;2023-07-16T00:56:34;19.18;82.37
68701;DHT22;55682;51.114;5.882;2023-07-16T00:59:01;19.15;81.99
68701;DHT22;55682;51.114;5.882;2023-07-16T01:01:26;19.06;82.22
68701;DHT22;55682;51.114;5.882;2023-07-16T01:03:52;19.08;81.72
68701;DHT22;55682;51.114;5.882;2023-07-16T01:06:27;19.08;81.75
68701;DHT22;55682;51.114;5.882;2023-07-16T01:09:14;19.09;81.39
68701;DHT22;55682;51.114;5.882;2023-07-16T01:11:43;19.02;81.63
68701;DHT22;55682;51.114;5.882;2023-07-16T01:14:10;19.01;81.65
68701;DHT22;55682;51.114;5.882;2023-07-16T01:16:36;18.94;81.80
68701;DHT22;55682;51.114;5.882;2023-07-16T01:19:02;18.86;82.00
68701;DHT22;55682;51.114;5.882;2023-07-16T01:21:42;18.87;82.01
68701;DHT22;55682;51.114;5.882;2023-07-16T01:30:03;18.80;82.00
68701;DHT22;55682;51.114;5.882;2023-07-16T01:32:33;18.80;82.10
68701;DHT22;55682;51.114;5.882;2023-07-16T01:35:02;18.73;82.18
68701;DHT22;55682;51.114;5.882;2023-07-16T01:37:29;18.71;82.47
68701;DHT22;55682;51.114;5.882;2023-07-16T01:39:56;18.68;82.33
68701;DHT22;55682;51.114;5.882;2023-07-16T01:42:21;18.63;82.57
68701;DHT22;55682;51.114;5.882;2023-07-16T01:44:47;18.63;82.69
68701;DHT22;55682;51.114;5.882;2023-07-16T01:49:54;18.58;82.86
68701;DHT22;55682;51.114;5.882;2023-07-16T01:52:19;18.52;83.13
68701;DHT22;55682;51.114;5.882;2023-07-16T01:54:45;18.52;82.92
68701;DHT22;55682;51.114;5.882;2023-07-16T01:57:11;18.50;83.11
68701;DHT22;55682;51.114;5.882;2023-07-16T01:59:36;18.47;83.42
68701;DHT22;55682;51.114;5.882;2023-07-16T02:02:03;18.49;83.39
68701;DHT22;55682;51.114;5.882;2023-07-16T02:04:28;18.47;83.59
68701;DHT22;55682;51.114;5.882;2023-07-16T02:06:57;18.44;83.68
68701;DHT22;55682;51.114;5.882;2023-07-16T02:09:23;18.43;83.81
68701;DHT22;55682;51.114;5.882;2023-07-16T02:11:48;18.47;83.68
68701;DHT22;55682;51.114;5.882;2023-07-16T02:14:14;18.43;83.98
68701;DHT22;55682;51.114;5.882;2023-07-16T02:16:41;18.37;84.35
68701;DHT22;55682;51.114;5.882;2023-07-16T02:19:07;18.38;84.28
68701;DHT22;55682;51.114;5.882;2023-07-16T02:21:34;18.34;84.52
68701;DHT22;55682;51.114;5.882;2023-07-16T02:24:00;18.37;84.15
68701;DHT22;55682;51.114;5.882;2023-07-16T02:26:26;18.29;84.26
68701;DHT22;55682;51.114;5.882;2023-07-16T02:28:51;18.38;83.98
68701;DHT22;55682;51.114;5.882;2023-07-16T02:31:17;18.37;83.42
68701;DHT22;55682;51.114;5.882;2023-07-16T02:33:42;18.39;82.73
68701;DHT22;55682;51.114;5.882;2023-07-16T02:36:08;18.44;81.99
68701;DHT22;55682;51.114;5.882;2023-07-16T02:38:34;18.44;81.55
68701;DHT22;55682;51.114;5.882;2023-07-16T02:40:59;18.35;81.59
68701;DHT22;55682;51.114;5.882;2023-07-16T02:43:25;18.37;81.17
68701;DHT22;55682;51.114;5.882;2023-07-16T02:45:51;18.36;80.44
68701;DHT22;55682;51.114;5.882;2023-07-16T02:48:16;18.36;79.99
68701;DHT22;55682;51.114;5.882;2023-07-16T02:50:42;18.33;79.95
68701;DHT22;55682;51.114;5.882;2023-07-16T02:53:08;18.37;79.61
68701;DHT22;55682;51.114;5.882;2023-07-16T02:55:37;18.25;80.09
68701;DHT22;55682;51.114;5.882;2023-07-16T02:58:03;18.22;80.01
68701;DHT22;55682;51.114;5.882;2023-07-16T03:00:33;18.20;79.85
68701;DHT22;55682;51.114;5.882;2023-07-16T03:02:59;18.23;79.97
68701;DHT22;55682;51.114;5.882;2023-07-16T03:05:27;18.14;80.05
68701;DHT22;55682;51.114;5.882;2023-07-16T03:07:54;18.05;80.56
68701;DHT22;55682;51.114;5.882;2023-07-16T03:10:21;18.07;80.12
68701;DHT22;55682;51.114;5.882;2023-07-16T03:12:47;18.07;79.99
68701;DHT22;55682;51.114;5.882;2023-07-16T03:15:13;17.97;79.59
68701;DHT22;55682;51.114;5.882;2023-07-16T03:17:39;18.07;77.22
68701;DHT22;55682;51.114;5.882;2023-07-16T03:20:06;18.00;77.70
68701;DHT22;55682;51.114;5.882;2023-07-16T03:22:32;18.09;76.73
68701;DHT22;55682;51.114;5.882;2023-07-16T03:24:58;18.14;75.99
68701;DHT22;55682;51.114;5.882;2023-07-16T03:27:24;17.99;76.86
68701;DHT22;55682;51.114;5.882;2023-07-16T03:29:55;17.93;77.08
68701;DHT22;55682;51.114;5.882;2023-07-16T03:32:21;17.91;76.98
68701;DHT22;55682;51.114;5.882;2023-07-16T03:34:47;17.94;76.88
68701;DHT22;55682;51.114;5.882;2023-07-16T03:37:13;17.84;77.46
68701;DHT22;55682;51.114;5.882;2023-07-16T03:39:38;17.88;77.42
68701;DHT22;55682;51.114;5.882;2023-07-16T03:42:04;17.80;77.66
68701;DHT22;55682;51.114;5.882;2023-07-16T03:44:30;17.82;77.58
68701;DHT22;55682;51.114;5.882;2023-07-16T03:46:57;17.73;77.68
68701;DHT22;55682;51.114;5.882;2023-07-16T03:49:23;17.75;77.21
68701;DHT22;55682;51.114;5.882;2023-07-16T03:51:49;17.85;75.83
68701;DHT22;55682;51.114;5.882;2023-07-16T03:54:14;17.83;76.45
68701;DHT22;55682;51.114;5.882;2023-07-16T03:56:40;17.84;76.08
68701;DHT22;55682;51.114;5.882;2023-07-16T03:59:06;18.07;74.27
68701;DHT22;55682;51.114;5.882;2023-07-16T04:01:31;18.04;73.97
68701;DHT22;55682;51.114;5.882;2023-07-16T04:03:57;18.10;73.83
68701;DHT22;55682;51.114;5.882;2023-07-16T04:06:23;18.38;72.86
68701;DHT22;55682;51.114;5.882;2023-07-16T04:08:48;18.69;71.96
68701;DHT22;55682;51.114;5.882;2023-07-16T04:11:14;19.00;70.89
68701;DHT22;55682;51.114;5.882;2023-07-16T04:13:39;19.35;69.54
68701;DHT22;55682;51.114;5.882;2023-07-16T04:16:05;19.66;68.36
68701;DHT22;55682;51.114;5.882;2023-07-16T04:18:31;19.95;67.49
68701;DHT22;55682;51.114;5.882;2023-07-16T04:20:56;20.28;66.11
68701;DHT22;55682;51.114;5.882;2023-07-16T04:23:22;20.57;65.21
68701;DHT22;55682;51.114;5.882;2023-07-16T04:25:52;20.90;63.83
68701;DHT22;55682;51.114;5.882;2023-07-16T04:28:18;21.13;62.98
68701;DHT22;55682;51.114;5.882;2023-07-16T04:30:44;21.46;61.94
68701;DHT22;55682;51.114;5.882;2023-07-16T04:33:10;21.69;60.80
68701;DHT22;55682;51.114;5.882;2023-07-16T04:35:36;21.96;59.73
68701;DHT22;55682;51.114;5.882;2023-07-16T04:38:01;22.21;59.02
68701;DHT22;55682;51.114;5.882;2023-07-16T04:40:29;22.41;58.00
68701;DHT22;55682;51.114;5.882;2023-07-16T04:42:55;22.63;57.34
68701;DHT22;55682;51.114;5.882;2023-07-16T04:45:21;22.90;56.53
68701;DHT22;55682;51.114;5.882;2023-07-16T04:47:47;23.09;55.04
68701;DHT22;55682;51.114;5.882;2023-07-16T04:50:12;23.16;55.06
68701;DHT22;55682;51.114;5.882;2023-07-16T04:52:38;23.32;54.07
68701;DHT22;55682;51.114;5.882;2023-07-16T04:55:04;23.56;53.46
68701;DHT22;55682;51.114;5.882;2023-07-16T04:57:30;23.79;52.22
68701;DHT22;55682;51.114;5.882;2023-07-16T04:59:57;23.87;51.96
68701;DHT22;55682;51.114;5.882;2023-07-16T05:02:23;24.03;51.28
68701;DHT22;55682;51.114;5.882;2023-07-16T05:04:48;24.18;50.82
68701;DHT22;55682;51.114;5.882;2023-07-16T05:07:14;24.40;50.19
68701;DHT22;55682;51.114;5.882;2023-07-16T05:09:41;24.59;49.53
68701;DHT22;55682;51.114;5.882;2023-07-16T05:12:07;24.76;48.83
68701;DHT22;55682;51.114;5.882;2023-07-16T05:14:43;25.06;47.89
68701;DHT22;55682;51.114;5.882;2023-07-16T05:17:10;25.10;47.44
68701;DHT22;55682;51.114;5.882;2023-07-16T05:19:36;25.07;47.15
68701;DHT22;55682;51.114;5.882;2023-07-16T05:22:02;24.97;47.37
68701;DHT22;55682;51.114;5.882;2023-07-16T05:24:27;25.13;47.11
68701;DHT22;55682;51.114;5.882;2023-07-16T05:26:53;25.47;46.88
68701;DHT22;55682;51.114;5.882;2023-07-16T05:29:20;25.96;45.37
68701;DHT22;55682;51.114;5.882;2023-07-16T05:31:45;26.33;44.06
68701;DHT22;55682;51.114;5.882;2023-07-16T05:34:12;26.51;43.22
68701;DHT22;55682;51.114;5.882;2023-07-16T05:36:38;26.52;42.85
68701;DHT22;55682;51.114;5.882;2023-07-16T05:39:04;26.42;42.99
68701;DHT22;55682;51.114;5.882;2023-07-16T05:41:29;26.31;43.09
68701;DHT22;55682;51.114;5.882;2023-07-16T05:43:55;26.23;42.74
68701;DHT22;55682;51.114;5.882;2023-07-16T05:46:20;26.30;42.52
68701;DHT22;55682;51.114;5.882;2023-07-16T05:48:46;26.35;42.63
68701;DHT22;55682;51.114;5.882;2023-07-16T05:51:12;26.41;42.53
68701;DHT22;55682;51.114;5.882;2023-07-16T05:53:38;26.85;42.23
68701;DHT22;55682;51.114;5.882;2023-07-16T05:56:03;27.36;40.39
68701;DHT22;55682;51.114;5.882;2023-07-16T05:58:29;27.63;39.56
68701;DHT22;55682;51.114;5.882;2023-07-16T06:00:55;27.93;38.39
68701;DHT22;55682;51.114;5.882;2023-07-16T06:03:20;28.35;37.43
68701;DHT22;55682;51.114;5.882;2023-07-16T06:05:46;28.16;37.53
68701;DHT22;55682;51.114;5.882;2023-07-16T06:08:12;28.02;37.71
68701;DHT22;55682;51.114;5.882;2023-07-16T06:10:37;27.80;38.09
68701;DHT22;55682;51.114;5.882;2023-07-16T06:13:04;27.69;38.62
68701;DHT22;55682;51.114;5.882;2023-07-16T06:15:30;27.59;39.01
68701;DHT22;55682;51.114;5.882;2023-07-16T06:17:55;27.95;38.48
68701;DHT22;55682;51.114;5.882;2023-07-16T06:20:21;28.40;37.57
68701;DHT22;55682;51.114;5.882;2023-07-16T06:22:47;28.58;36.13
68701;DHT22;55682;51.114;5.882;2023-07-16T06:25:12;28.71;36.22
68701;DHT22;55682;51.114;5.882;2023-07-16T06:27:38;28.88;35.98
68701;DHT22;55682;51.114;5.882;2023-07-16T06:30:05;28.87;35.35
68701;DHT22;55682;51.114;5.882;2023-07-16T06:32:31;28.73;35.67
68701;DHT22;55682;51.114;5.882;2023-07-16T06:34:57;28.77;35.85
68701;DHT22;55682;51.114;5.882;2023-07-16T06:37:22;28.87;35.01
68701;DHT22;55682;51.114;5.882;2023-07-16T06:39:49;28.85;35.43
68701;DHT22;55682;51.114;5.882;2023-07-16T06:42:15;29.21;35.15
68701;DHT22;55682;51.114;5.882;2023-07-16T06:44:41;29.52;34.19
68701;DHT22;55682;51.114;5.882;2023-07-16T06:47:07;29.77;34.35
68701;DHT22;55682;51.114;5.882;2023-07-16T06:49:33;30.35;33.67
68701;DHT22;55682;51.114;5.882;2023-07-16T06:52:02;30.80;32.01
68701;DHT22;55682;51.114;5.882;2023-07-16T06:54:28;30.67;32.10
68701;DHT22;55682;51.114;5.882;2023-07-16T06:56:54;30.70;32.12
68701;DHT22;55682;51.114;5.882;2023-07-16T06:59:19;30.94;31.74
68701;DHT22;55682;51.114;5.882;2023-07-16T07:01:45;31.19;31.30
68701;DHT22;55682;51.114;5.882;2023-07-16T07:04:11;31.36;31.10
68701;DHT22;55682;51.114;5.882;2023-07-16T07:06:37;31.48;30.48
68701;DHT22;55682;51.114;5.882;2023-07-16T07:09:03;31.63;30.70
68701;DHT22;55682;51.114;5.882;2023-07-16T07:11:29;32.04;29.62
68701;DHT22;55682;51.114;5.882;2023-07-16T07:13:54;32.18;29.58
68701;DHT22;55682;51.114;5.882;2023-07-16T07:16:21;32.58;29.03
68701;DHT22;55682;51.114;5.882;2023-07-16T07:18:47;32.23;28.39
68701;DHT22;55682;51.114;5.882;2023-07-16T07:21:13;32.27;29.36
68701;DHT22;55682;51.114;5.882;2023-07-16T07:23:39;32.40;29.60
68701;DHT22;55682;51.114;5.882;2023-07-16T07:26:05;32.31;28.55
68701;DHT22;55682;51.114;5.882;2023-07-16T07:28:31;31.94;29.02
68701;DHT22;55682;51.114;5.882;2023-07-16T07:30:57;31.94;29.32
68701;DHT22;55682;51.114;5.882;2023-07-16T07:33:23;31.92;29.24
68701;DHT22;55682;51.114;5.882;2023-07-16T07:35:48;31.76;29.52
68701;DHT22;55682;51.114;5.882;2023-07-16T07:38:14;31.99;29.62
68701;DHT22;55682;51.114;5.882;2023-07-16T07:40:42;32.40;28.81
68701;DHT22;55682;51.114;5.882;2023-07-16T07:43:09;32.25;28.79
68701;DHT22;55682;51.114;5.882;2023-07-16T07:45:34;32.00;29.09
68701;DHT22;55682;51.114;5.882;2023-07-16T07:48:00;31.53;29.74
68701;DHT22;55682;51.114;5.882;2023-07-16T07:50:26;31.33;30.62
68701;DHT22;55682;51.114;5.882;2023-07-16T07:52:51;31.40;30.52
68701;DHT22;55682;51.114;5.882;2023-07-16T07:55:17;31.43;29.58
68701;DHT22;55682;51.114;5.882;2023-07-16T07:57:43;30.84;31.19
68701;DHT22;55682;51.114;5.882;2023-07-16T08:00:09;31.02;31.05
68701;DHT22;55682;51.114;5.882;2023-07-16T08:02:38;30.79;30.78
68701;DHT22;55682;51.114;5.882;2023-07-16T08:05:04;30.01;32.54
68701;DHT22;55682;51.114;5.882;2023-07-16T08:07:30;29.67;33.89
68701;DHT22;55682;51.114;5.882;2023-07-16T08:09:55;30.47;32.76
68701;DHT22;55682;51.114;5.882;2023-07-16T08:12:21;29.97;33.08
68701;DHT22;55682;51.114;5.882;2023-07-16T08:14:48;29.56;33.83
68701;DHT22;55682;51.114;5.882;2023-07-16T08:17:13;28.71;35.11
68701;DHT22;55682;51.114;5.882;2023-07-16T08:19:39;29.16;34.99
68701;DHT22;55682;51.114;5.882;2023-07-16T08:22:05;29.31;34.54
68701;DHT22;55682;51.114;5.882;2023-07-16T08:24:30;30.25;33.57
68701;DHT22;55682;51.114;5.882;2023-07-16T08:26:56;31.57;30.08
68701;DHT22;55682;51.114;5.882;2023-07-16T08:29:22;32.18;28.84
68701;DHT22;55682;51.114;5.882;2023-07-16T08:31:47;31.71;29.90
68701;DHT22;55682;51.114;5.882;2023-07-16T08:34:13;32.02;29.13
68701;DHT22;55682;51.114;5.882;2023-07-16T08:36:39;31.27;30.03
68701;DHT22;55682;51.114;5.882;2023-07-16T08:39:04;30.54;31.90
68701;DHT22;55682;51.114;5.882;2023-07-16T08:41:31;31.15;31.05
68701;DHT22;55682;51.114;5.882;2023-07-16T08:43:57;31.54;30.03
68701;DHT22;55682;51.114;5.882;2023-07-16T08:46:23;30.92;30.80
68701;DHT22;55682;51.114;5.882;2023-07-16T08:48:50;30.01;32.64
68701;DHT22;55682;51.114;5.882;2023-07-16T08:51:17;30.53;33.08
68701;DHT22;55682;51.114;5.882;2023-07-16T08:53:46;32.03;30.09
68701;DHT22;55682;51.114;5.882;2023-07-16T08:56:12;33.43;27.87
68701;DHT22;55682;51.114;5.882;2023-07-16T08:58:41;33.45;25.97
68701;DHT22;55682;51.114;5.882;2023-07-16T09:01:08;32.43;27.32
68701;DHT22;55682;51.114;5.882;2023-07-16T09:03:35;30.75;30.13
68701;DHT22;55682;51.114;5.882;2023-07-16T09:06:02;29.21;33.12
68701;DHT22;55682;51.114;5.882;2023-07-16T09:08:28;28.42;35.29
68701;DHT22;55682;51.114;5.882;2023-07-16T09:10:57;28.82;34.31
68701;DHT22;55682;51.114;5.882;2023-07-16T09:13:24;28.55;35.02
68701;DHT22;55682;51.114;5.882;2023-07-16T09:15:57;29.33;35.04
68701;DHT22;55682;51.114;5.882;2023-07-16T09:18:25;29.97;33.10
68701;DHT22;55682;51.114;5.882;2023-07-16T09:20:58;30.32;32.15
68701;DHT22;55682;51.114;5.882;2023-07-16T09:23:27;30.13;32.47
68701;DHT22;55682;51.114;5.882;2023-07-16T09:25:54;30.00;32.11
68701;DHT22;55682;51.114;5.882;2023-07-16T09:28:20;30.32;31.66
68701;DHT22;55682;51.114;5.882;2023-07-16T09:30:47;29.81;32.02
68701;DHT22;55682;51.114;5.882;2023-07-16T09:33:19;28.91;33.92
68701;DHT22;55682;51.114;5.882;2023-07-16T09:35:50;28.76;35.66
68701;DHT22;55682;51.114;5.882;2023-07-16T09:38:17;29.90;33.00
68701;DHT22;55682;51.114;5.882;2023-07-16T09:40:44;30.67;32.06
68701;DHT22;55682;51.114;5.882;2023-07-16T09:43:11;30.59;31.95
68701;DHT22;55682;51.114;5.882;2023-07-16T09:45:38;30.01;32.67
68701;DHT22;55682;51.114;5.882;2023-07-16T09:48:04;29.63;34.18
68701;DHT22;55682;51.114;5.882;2023-07-16T09:50:32;29.58;34.02
68701;DHT22;55682;51.114;5.882;2023-07-16T09:52:59;29.17;34.34
68701;DHT22;55682;51.114;5.882;2023-07-16T09:55:25;28.94;34.49
68701;DHT22;55682;51.114;5.882;2023-07-16T09:57:53;29.20;34.23
68701;DHT22;55682;51.114;5.882;2023-07-16T10:00:22;28.98;33.93
68701;DHT22;55682;51.114;5.882;2023-07-16T10:02:50;28.95;33.92
68701;DHT22;55682;51.114;5.882;2023-07-16T10:05:25;28.70;34.50
68701;DHT22;55682;51.114;5.882;2023-07-16T10:07:57;28.34;35.37
68701;DHT22;55682;51.114;5.882;2023-07-16T10:10:38;29.45;33.81
68701;DHT22;55682;51.114;5.882;2023-07-16T10:13:07;30.94;31.09
68701;DHT22;55682;51.114;5.882;2023-07-16T10:15:33;31.63;29.91
68701;DHT22;55682;51.114;5.882;2023-07-16T10:17:59;31.70;28.44
68701;DHT22;55682;51.114;5.882;2023-07-16T10:20:35;31.09;29.00
68701;DHT22;55682;51.114;5.882;2023-07-16T10:23:16;31.06;29.51
68701;DHT22;55682;51.114;5.882;2023-07-16T10:26:02;31.80;28.74
68701;DHT22;55682;51.114;5.882;2023-07-16T10:28:36;31.79;28.85
68701;DHT22;55682;51.114;5.882;2023-07-16T10:31:02;31.52;29.06
68701;DHT22;55682;51.114;5.882;2023-07-16T10:33:28;31.11;28.87
68701;DHT22;55682;51.114;5.882;2023-07-16T10:35:57;29.94;31.59
68701;DHT22;55682;51.114;5.882;2023-07-16T10:38:24;29.42;32.80
68701;DHT22;55682;51.114;5.882;2023-07-16T10:40:50;28.97;33.72
68701;DHT22;55682;51.114;5.882;2023-07-16T10:43:16;28.76;34.98
68701;DHT22;55682;51.114;5.882;2023-07-16T10:45:42;28.80;33.96
68701;DHT22;55682;51.114;5.882;2023-07-16T10:48:07;28.57;34.36
68701;DHT22;55682;51.114;5.882;2023-07-16T10:50:35;28.78;34.90
68701;DHT22;55682;51.114;5.882;2023-07-16T10:53:01;29.78;32.30
68701;DHT22;55682;51.114;5.882;2023-07-16T10:55:28;30.15;31.38
68701;DHT22;55682;51.114;5.882;2023-07-16T10:57:55;29.54;32.15
68701;DHT22;55682;51.114;5.882;2023-07-16T11:00:22;28.90;33.71
68701;DHT22;55682;51.114;5.882;2023-07-16T11:02:49;28.52;34.48
68701;DHT22;55682;51.114;5.882;2023-07-16T11:05:17;28.45;35.50
68701;DHT22;55682;51.114;5.882;2023-07-16T11:07:45;29.41;33.54
68701;DHT22;55682;51.114;5.882;2023-07-16T11:10:11;29.32;33.06
68701;DHT22;55682;51.114;5.882;2023-07-16T11:12:36;29.06;32.85
68701;DHT22;55682;51.114;5.882;2023-07-16T11:15:03;28.54;33.93
68701;DHT22;55682;51.114;5.882;2023-07-16T11:17:28;28.15;34.62
68701;DHT22;55682;51.114;5.882;2023-07-16T11:19:55;27.94;35.28
68701;DHT22;55682;51.114;5.882;2023-07-16T11:22:27;27.76;35.76
68701;DHT22;55682;51.114;5.882;2023-07-16T11:24:53;27.52;36.47
68701;DHT22;55682;51.114;5.882;2023-07-16T11:27:27;27.60;36.92
68701;DHT22;55682;51.114;5.882;2023-07-16T11:29:55;27.89;36.63
68701;DHT22;55682;51.114;5.882;2023-07-16T11:32:33;28.13;36.16
68701;DHT22;55682;51.114;5.882;2023-07-16T11:35:00;28.39;35.59
68701;DHT22;55682;51.114;5.882;2023-07-16T11:37:28;28.71;35.02
68701;DHT22;55682;51.114;5.882;2023-07-16T11:39:56;28.89;34.92
68701;DHT22;55682;51.114;5.882;2023-07-16T11:42:27;29.11;33.73
68701;DHT22;55682;51.114;5.882;2023-07-16T11:44:53;29.05;33.94
68701;DHT22;55682;51.114;5.882;2023-07-16T11:47:20;28.88;34.24
68701;DHT22;55682;51.114;5.882;2023-07-16T11:49:46;28.80;34.34
68701;DHT22;55682;51.114;5.882;2023-07-16T11:52:12;28.73;33.97
68701;DHT22;55682;51.114;5.882;2023-07-16T11:54:37;28.68;34.04
68701;DHT22;55682;51.114;5.882;2023-07-16T11:57:03;29.00;33.92
68701;DHT22;55682;51.114;5.882;2023-07-16T11:59:29;29.20;33.18
68701;DHT22;55682;51.114;5.882;2023-07-16T12:01:55;29.21;33.39
68701;DHT22;55682;51.114;5.882;2023-07-16T12:04:20;29.19;33.90
68701;DHT22;55682;51.114;5.882;2023-07-16T12:06:46;28.73;32.99
68701;DHT22;55682;51.114;5.882;2023-07-16T12:09:11;28.40;34.38
68701;DHT22;55682;51.114;5.882;2023-07-16T12:11:38;28.40;34.41
68701;DHT22;55682;51.114;5.882;2023-07-16T12:14:05;28.45;34.03
68701;DHT22;55682;51.114;5.882;2023-07-16T12:16:31;28.45;34.41
68701;DHT22;55682;51.114;5.882;2023-07-16T12:18:56;28.56;34.29
68701;DHT22;55682;51.114;5.882;2023-07-16T12:21:22;28.31;33.65
68701;DHT22;55682;51.114;5.882;2023-07-16T12:23:48;28.04;34.12
68701;DHT22;55682;51.114;5.882;2023-07-16T12:26:14;27.98;34.84
68701;DHT22;55682;51.114;5.882;2023-07-16T12:28:40;28.29;35.28
68701;DHT22;55682;51.114;5.882;2023-07-16T12:31:05;28.87;33.76
68701;DHT22;55682;51.114;5.882;2023-07-16T12:33:31;28.91;33.21
68701;DHT22;55682;51.114;5.882;2023-07-16T12:35:57;28.89;32.78
68701;DHT22;55682;51.114;5.882;2023-07-16T12:38:22;28.92;32.67
68701;DHT22;55682;51.114;5.882;2023-07-16T12:40:48;29.08;32.70
68701;DHT22;55682;51.114;5.882;2023-07-16T12:43:14;29.19;32.15
68701;DHT22;55682;51.114;5.882;2023-07-16T12:45:39;29.06;32.51
68701;DHT22;55682;51.114;5.882;2023-07-16T12:48:05;29.01;32.86
68701;DHT22;55682;51.114;5.882;2023-07-16T12:50:31;29.09;33.22
68701;DHT22;55682;51.114;5.882;2023-07-16T12:52:56;29.53;32.54
68701;DHT22;55682;51.114;5.882;2023-07-16T12:55:22;29.64;32.13
68701;DHT22;55682;51.114;5.882;2023-07-16T12:57:49;29.79;32.26
68701;DHT22;55682;51.114;5.882;2023-07-16T13:00:15;29.88;31.51
68701;DHT22;55682;51.114;5.882;2023-07-16T13:02:40;29.60;31.76
68701;DHT22;55682;51.114;5.882;2023-07-16T13:05:06;29.26;32.19
68701;DHT22;55682;51.114;5.882;2023-07-16T13:07:33;29.07;33.20
68701;DHT22;55682;51.114;5.882;2023-07-16T13:09:59;28.90;33.10
68701;DHT22;55682;51.114;5.882;2023-07-16T13:12:24;28.79;33.64
68701;DHT22;55682;51.114;5.882;2023-07-16T13:14:50;28.87;33.60
68701;DHT22;55682;51.114;5.882;2023-07-16T13:17:16;28.77;32.39
68701;DHT22;55682;51.114;5.882;2023-07-16T13:19:43;28.37;33.40
68701;DHT22;55682;51.114;5.882;2023-07-16T13:22:09;28.25;33.73
68701;DHT22;55682;51.114;5.882;2023-07-16T13:24:34;28.28;34.05
68701;DHT22;55682;51.114;5.882;2023-07-16T13:27:00;28.26;33.95
68701;DHT22;55682;51.114;5.882;2023-07-16T13:29:26;28.29;34.31
68701;DHT22;55682;51.114;5.882;2023-07-16T13:31:51;28.44;34.45
68701;DHT22;55682;51.114;5.882;2023-07-16T13:34:17;28.61;33.77
68701;DHT22;55682;51.114;5.882;2023-07-16T13:36:42;28.57;33.07
68701;DHT22;55682;51.114;5.882;2023-07-16T13:39:08;28.31;33.77
68701;DHT22;55682;51.114;5.882;2023-07-16T13:41:35;28.27;34.26
68701;DHT22;55682;51.114;5.882;2023-07-16T13:44:01;28.40;33.95
68701;DHT22;55682;51.114;5.882;2023-07-16T13:46:28;28.49;33.72
68701;DHT22;55682;51.114;5.882;2023-07-16T13:48:54;28.44;34.24
68701;DHT22;55682;51.114;5.882;2023-07-16T13:51:19;28.37;34.76
68701;DHT22;55682;51.114;5.882;2023-07-16T13:53:45;28.46;35.06
68701;DHT22;55682;51.114;5.882;2023-07-16T13:56:11;28.47;35.02
68701;DHT22;55682;51.114;5.882;2023-07-16T13:58:36;28.52;32.86
68701;DHT22;55682;51.114;5.882;2023-07-16T14:01:02;28.10;33.78
68701;DHT22;55682;51.114;5.882;2023-07-16T14:03:28;27.82;34.57
68701;DHT22;55682;51.114;5.882;2023-07-16T14:05:54;27.74;35.31
68701;DHT22;55682;51.114;5.882;2023-07-16T14:08:19;27.97;35.21
68701;DHT22;55682;51.114;5.882;2023-07-16T14:10:45;28.11;34.18
68701;DHT22;55682;51.114;5.882;2023-07-16T14:13:11;28.00;34.31
68701;DHT22;55682;51.114;5.882;2023-07-16T14:15:38;28.19;34.43
68701;DHT22;55682;51.114;5.882;2023-07-16T14:18:03;28.41;34.21
68701;DHT22;55682;51.114;5.882;2023-07-16T14:20:29;28.41;34.36
68701;DHT22;55682;51.114;5.882;2023-07-16T14:22:55;28.33;34.45
68701;DHT22;55682;51.114;5.882;2023-07-16T14:25:20;28.34;33.50
68701;DHT22;55682;51.114;5.882;2023-07-16T14:27:46;28.06;34.37
68701;DHT22;55682;51.114;5.882;2023-07-16T14:30:15;28.01;34.39
68701;DHT22;55682;51.114;5.882;2023-07-16T14:32:41;28.11;34.39
68701;DHT22;55682;51.114;5.882;2023-07-16T14:35:08;28.20;34.47
68701;DHT22;55682;51.114;5.882;2023-07-16T14:37:34;28.08;34.53
68701;DHT22;55682;51.114;5.882;2023-07-16T14:40:00;28.11;33.85
68701;DHT22;55682;51.114;5.882;2023-07-16T14:42:26;28.00;34.17
68701;DHT22;55682;51.114;5.882;2023-07-16T14:44:51;27.96;34.40
68701;DHT22;55682;51.114;5.882;2023-07-16T14:47:17;27.94;34.20
68701;DHT22;55682;51.114;5.882;2023-07-16T14:49:43;27.97;34.36
68701;DHT22;55682;51.114;5.882;2023-07-16T14:52:09;28.00;34.25
68701;DHT22;55682;51.114;5.882;2023-07-16T14:54:34;27.75;34.27
68701;DHT22;55682;51.114;5.882;2023-07-16T14:57:01;27.63;34.89
68701;DHT22;55682;51.114;5.882;2023-07-16T14:59:28;27.67;35.34
68701;DHT22;55682;51.114;5.882;2023-07-16T15:01:54;27.91;34.64
68701;DHT22;55682;51.114;5.882;2023-07-16T15:04:20;27.82;34.85
68701;DHT22;55682;51.114;5.882;2023-07-16T15:06:45;27.84;34.67
68701;DHT22;55682;51.114;5.882;2023-07-16T15:09:11;27.93;34.96
68701;DHT22;55682;51.114;5.882;2023-07-16T15:11:39;28.10;34.79
68701;DHT22;55682;51.114;5.882;2023-07-16T15:14:05;28.17;34.16
68701;DHT22;55682;51.114;5.882;2023-07-16T15:16:30;28.03;34.53
68701;DHT22;55682;51.114;5.882;2023-07-16T15:18:56;27.82;35.28
68701;DHT22;55682;51.114;5.882;2023-07-16T15:21:22;27.82;35.36
68701;DHT22;55682;51.114;5.882;2023-07-16T15:23:48;27.63;35.55
68701;DHT22;55682;51.114;5.882;2023-07-16T15:26:13;27.53;35.25
68701;DHT22;55682;51.114;5.882;2023-07-16T15:28:39;27.60;35.05
68701;DHT22;55682;51.114;5.882;2023-07-16T15:31:08;27.66;35.14
68701;DHT22;55682;51.114;5.882;2023-07-16T15:33:34;27.67;34.52